sensor_id;sensor_type;location;lat;lon;timestamp;P1;durP1;ratioP1;P2;durP2;ratioP2
1346;SDS011;667;48.796;9.480;2022-12-07T00:01:15;10.20;;;8.82;;
1346;SDS011;667;48.796;9.480;2022-12-07T00:03:46;10.43;;;9.30;;
1346;SDS011;667;48.796;9.480;2022-12-07T00:06:14;16.83;;;12.15;;
1346;SDS011;667;48.796;9.480;2022-12-07T00:08:40;9.73;;;8.73;;
1346;SDS011;667;48.796;9.480;2022-12-07T00:11:07;8.97;;;8.10;;
1346;SDS011;667;48.796;9.480;2022-12-07T00:13:34;11.07;;;9.98;;
1346;SDS011;667;48.796;9.480;2022-12-07T00:16:01;9.68;;;8.68;;
1346;SDS011;667;48.796;9.480;2022-12-07T00:18:28;10.32;;;9.20;;
1346;SDS011;667;48.796;9.480;2022-12-07T00:20:58;21.97;;;18.63;;
1346;SDS011;667;48.796;9.480;2022-12-07T00:23:28;14.35;;;12.90;;
1346;SDS011;667;48.796;9.480;2022-12-07T00:25:53;22.67;;;18.17;;
1346;SDS011;667;48.796;9.480;2022-12-07T00:28:19;12.30;;;10.23;;
1346;SDS011;667;48.796;9.480;2022-12-07T00:30:44;10.40;;;9.40;;
1346;SDS011;667;48.796;9.480;2022-12-07T00:33:10;11.00;;;9.80;;
1346;SDS011;667;48.796;9.480;2022-12-07T00:35:36;14.93;;;13.43;;
1346;SDS011;667;48.796;9.480;2022-12-07T00:38:01;11.43;;;10.20;;
1346;SDS011;667;48.796;9.480;2022-12-07T00:40:27;15.60;;;12.87;;
1346;SDS011;667;48.796;9.480;2022-12-07T00:42:52;10.70;;;9.33;;
1346;SDS011;667;48.796;9.480;2022-12-07T00:45:18;10.53;;;9.27;;
1346;SDS011;667;48.796;9.480;2022-12-07T00:47:43;13.77;;;11.30;;
1346;SDS011;667;48.796;9.480;2022-12-07T00:50:09;11.70;;;9.10;;
1346;SDS011;667;48.796;9.480;2022-12-07T00:52:34;10.30;;;9.20;;
1346;SDS011;667;48.796;9.480;2022-12-07T00:55:00;12.60;;;11.20;;
1346;SDS011;667;48.796;9.480;2022-12-07T00:57:25;11.00;;;9.10;;
1346;SDS011;667;48.796;9.480;2022-12-07T00:59:51;14.17;;;10.37;;
1346;SDS011;667;48.796;9.480;2022-12-07T01:02:20;10.57;;;9.48;;
1346;SDS011;667;48.796;9.480;2022-12-07T01:04:46;10.68;;;9.63;;
1346;SDS011;667;48.796;9.480;2022-12-07T01:07:12;10.13;;;9.03;;
1346;SDS011;667;48.796;9.480;2022-12-07T01:09:37;9.70;;;8.70;;
1346;SDS011;667;48.796;9.480;2022-12-07T01:12:03;10.00;;;8.83;;
1346;SDS011;667;48.796;9.480;2022-12-07T01:14:28;11.50;;;9.70;;
1346;SDS011;667;48.796;9.480;2022-12-07T01:16:54;12.73;;;9.83;;
1346;SDS011;667;48.796;9.480;2022-12-07T01:19:20;10.53;;;8.83;;
1346;SDS011;667;48.796;9.480;2022-12-07T01:21:45;10.67;;;9.53;;
1346;SDS011;667;48.796;9.480;2022-12-07T01:24:11;12.97;;;9.30;;
1346;SDS011;667;48.796;9.480;2022-12-07T01:26:36;11.63;;;9.47;;
1346;SDS011;667;48.796;9.480;2022-12-07T01:29:02;10.73;;;9.30;;
1346;SDS011;667;48.796;9.480;2022-12-07T01:31:28;12.27;;;9.60;;
1346;SDS011;667;48.796;9.480;2022-12-07T01:33:55;12.57;;;9.67;;
1346;SDS011;667;48.796;9.480;2022-12-07T01:38:56;12.27;;;9.90;;
1346;SDS011;667;48.796;9.480;2022-12-07T01:41:24;11.88;;;10.57;;
1346;SDS011;667;48.796;9.480;2022-12-07T01:46:36;10.98;;;9.88;;
1346;SDS011;667;48.796;9.480;2022-12-07T01:49:03;12.65;;;8.85;;
1346;SDS011;667;48.796;9.480;2022-12-07T01:51:35;10.43;;;9.05;;
1346;SDS011;667;48.796;9.480;2022-12-07T01:54:04;11.07;;;10.00;;
1346;SDS011;667;48.796;9.480;2022-12-07T01:56:29;11.33;;;8.83;;
1346;SDS011;667;48.796;9.480;2022-12-07T01:58:57;11.93;;;10.05;;
1346;SDS011;667;48.796;9.480;2022-12-07T02:01:25;10.85;;;9.75;;
1346;SDS011;667;48.796;9.480;2022-12-07T02:03:50;9.67;;;8.63;;
1346;SDS011;667;48.796;9.480;2022-12-07T02:06:19;14.02;;;10.73;;
1346;SDS011;667;48.796;9.480;2022-12-07T02:08:47;13.38;;;10.23;;
1346;SDS011;667;48.796;9.480;2022-12-07T02:11:13;12.03;;;10.67;;
1346;SDS011;667;48.796;9.480;2022-12-07T02:13:39;11.20;;;9.60;;
1346;SDS011;667;48.796;9.480;2022-12-07T02:24:57;10.10;;;8.57;;
1346;SDS011;667;48.796;9.480;2022-12-07T02:29:58;10.70;;;9.05;;
1346;SDS011;667;48.796;9.480;2022-12-07T02:40:50;11.30;;;8.85;;
1346;SDS011;667;48.796;9.480;2022-12-07T02:46:07;11.32;;;8.20;;
1346;SDS011;667;48.796;9.480;2022-12-07T02:48:35;11.68;;;8.45;;
1346;SDS011;667;48.796;9.480;2022-12-07T02:51:04;10.18;;;8.60;;
1346;SDS011;667;48.796;9.480;2022-12-07T03:01:47;11.32;;;7.63;;
1346;SDS011;667;48.796;9.480;2022-12-07T03:13:05;12.50;;;9.10;;
1346;SDS011;667;48.796;9.480;2022-12-07T03:18:13;9.40;;;8.40;;
1346;SDS011;667;48.796;9.480;2022-12-07T03:20:42;8.27;;;7.38;;
1346;SDS011;667;48.796;9.480;2022-12-07T03:23:10;10.25;;;7.93;;
1346;SDS011;667;48.796;9.480;2022-12-07T03:25:39;7.82;;;7.03;;
1346;SDS011;667;48.796;9.480;2022-12-07T03:28:07;9.38;;;7.80;;
1346;SDS011;667;48.796;9.480;2022-12-07T03:33:27;9.35;;;7.32;;
1346;SDS011;667;48.796;9.480;2022-12-07T03:36:08;7.55;;;6.85;;
1346;SDS011;667;48.796;9.480;2022-12-07T03:38:45;7.95;;;6.65;;
1346;SDS011;667;48.796;9.480;2022-12-07T03:41:22;10.00;;;7.90;;
1346;SDS011;667;48.796;9.480;2022-12-07T03:43:50;12.07;;;9.38;;
1346;SDS011;667;48.796;9.480;2022-12-07T03:46:26;9.90;;;7.50;;
1346;SDS011;667;48.796;9.480;2022-12-07T03:49:11;8.07;;;7.05;;
1346;SDS011;667;48.796;9.480;2022-12-07T03:57:39;8.85;;;7.57;;
1346;SDS011;667;48.796;9.480;2022-12-07T04:00:08;11.07;;;8.35;;
1346;SDS011;667;48.796;9.480;2022-12-07T04:02:34;9.95;;;7.97;;
1346;SDS011;667;48.796;9.480;2022-12-07T04:05:01;7.03;;;6.40;;
1346;SDS011;667;48.796;9.480;2022-12-07T04:07:27;7.50;;;6.63;;
1346;SDS011;667;48.796;9.480;2022-12-07T04:09:52;9.47;;;8.00;;
1346;SDS011;667;48.796;9.480;2022-12-07T04:12:20;8.77;;;7.07;;
1346;SDS011;667;48.796;9.480;2022-12-07T04:14:46;9.48;;;7.43;;
1346;SDS011;667;48.796;9.480;2022-12-07T04:17:11;8.77;;;7.67;;
1346;SDS011;667;48.796;9.480;2022-12-07T04:19:37;9.00;;;7.50;;
1346;SDS011;667;48.796;9.480;2022-12-07T04:22:03;9.90;;;7.87;;
1346;SDS011;667;48.796;9.480;2022-12-07T04:24:29;8.75;;;6.70;;
1346;SDS011;667;48.796;9.480;2022-12-07T04:26:56;8.48;;;7.18;;
1346;SDS011;667;48.796;9.480;2022-12-07T04:29:21;10.20;;;7.20;;
1346;SDS011;667;48.796;9.480;2022-12-07T04:31:47;9.63;;;7.10;;
1346;SDS011;667;48.796;9.480;2022-12-07T04:34:14;9.60;;;7.50;;
1346;SDS011;667;48.796;9.480;2022-12-07T04:36:41;7.88;;;7.07;;
1346;SDS011;667;48.796;9.480;2022-12-07T04:39:07;10.90;;;7.97;;
1346;SDS011;667;48.796;9.480;2022-12-07T04:41:38;11.95;;;8.43;;
1346;SDS011;667;48.796;9.480;2022-12-07T04:44:03;10.87;;;7.67;;
1346;SDS011;667;48.796;9.480;2022-12-07T04:46:32;8.68;;;7.40;;
1346;SDS011;667;48.796;9.480;2022-12-07T04:48:58;11.87;;;7.77;;
1346;SDS011;667;48.796;9.480;2022-12-07T04:51:26;11.65;;;8.00;;
1346;SDS011;667;48.796;9.480;2022-12-07T04:53:53;11.07;;;7.95;;
1346;SDS011;667;48.796;9.480;2022-12-07T04:56:20;10.95;;;8.23;;
1346;SDS011;667;48.796;9.480;2022-12-07T04:58:47;10.60;;;8.30;;
1346;SDS011;667;48.796;9.480;2022-12-07T05:01:13;12.52;;;8.40;;
1346;SDS011;667;48.796;9.480;2022-12-07T05:03:40;11.02;;;7.50;;
1346;SDS011;667;48.796;9.480;2022-12-07T05:06:06;12.50;;;8.93;;
1346;SDS011;667;48.796;9.480;2022-12-07T05:08:32;10.13;;;7.90;;
1346;SDS011;667;48.796;9.480;2022-12-07T05:10:58;10.43;;;7.70;;
1346;SDS011;667;48.796;9.480;2022-12-07T05:13:24;10.48;;;8.80;;
1346;SDS011;667;48.796;9.480;2022-12-07T05:15:50;15.30;;;9.00;;
1346;SDS011;667;48.796;9.480;2022-12-07T05:18:15;13.37;;;9.13;;
1346;SDS011;667;48.796;9.480;2022-12-07T05:20:41;11.40;;;8.70;;
1346;SDS011;667;48.796;9.480;2022-12-07T05:23:07;12.52;;;9.63;;
1346;SDS011;667;48.796;9.480;2022-12-07T05:25:33;14.45;;;9.35;;
1346;SDS011;667;48.796;9.480;2022-12-07T05:27:59;13.73;;;9.83;;
1346;SDS011;667;48.796;9.480;2022-12-07T05:30:25;12.57;;;9.50;;
1346;SDS011;667;48.796;9.480;2022-12-07T05:32:51;11.48;;;8.32;;
1346;SDS011;667;48.796;9.480;2022-12-07T05:35:17;12.50;;;9.47;;
1346;SDS011;667;48.796;9.480;2022-12-07T05:37:43;12.07;;;9.15;;
1346;SDS011;667;48.796;9.480;2022-12-07T05:40:09;10.93;;;8.95;;
1346;SDS011;667;48.796;9.480;2022-12-07T05:42:35;12.48;;;9.50;;
1346;SDS011;667;48.796;9.480;2022-12-07T05:45:01;17.80;;;15.33;;
1346;SDS011;667;48.796;9.480;2022-12-07T05:47:26;20.43;;;15.03;;
1346;SDS011;667;48.796;9.480;2022-12-07T05:49:52;14.27;;;12.23;;
1346;SDS011;667;48.796;9.480;2022-12-07T05:52:17;13.93;;;11.70;;
1346;SDS011;667;48.796;9.480;2022-12-07T05:54:43;11.57;;;9.73;;
1346;SDS011;667;48.796;9.480;2022-12-07T05:57:09;11.43;;;9.17;;
1346;SDS011;667;48.796;9.480;2022-12-07T05:59:35;16.03;;;9.50;;
1346;SDS011;667;48.796;9.480;2022-12-07T06:02:05;13.38;;;8.60;;
1346;SDS011;667;48.796;9.480;2022-12-07T06:04:33;11.95;;;10.45;;
1346;SDS011;667;48.796;9.480;2022-12-07T06:07:03;13.85;;;9.95;;
1346;SDS011;667;48.796;9.480;2022-12-07T06:09:30;13.90;;;10.40;;
1346;SDS011;667;48.796;9.480;2022-12-07T06:11:56;12.53;;;9.97;;
1346;SDS011;667;48.796;9.480;2022-12-07T06:14:40;13.52;;;10.50;;
1346;SDS011;667;48.796;9.480;2022-12-07T06:17:06;13.50;;;9.67;;
1346;SDS011;667;48.796;9.480;2022-12-07T06:19:32;12.18;;;9.75;;
1346;SDS011;667;48.796;9.480;2022-12-07T06:21:57;11.50;;;9.57;;
1346;SDS011;667;48.796;9.480;2022-12-07T06:24:23;10.73;;;9.60;;
1346;SDS011;667;48.796;9.480;2022-12-07T06:26:49;11.43;;;8.02;;
1346;SDS011;667;48.796;9.480;2022-12-07T06:29:16;11.15;;;8.60;;
1346;SDS011;667;48.796;9.480;2022-12-07T06:31:42;8.77;;;6.97;;
1346;SDS011;667;48.796;9.480;2022-12-07T06:34:12;10.93;;;7.80;;
1346;SDS011;667;48.796;9.480;2022-12-07T06:36:39;10.82;;;7.55;;
1346;SDS011;667;48.796;9.480;2022-12-07T06:39:05;11.13;;;7.60;;
1346;SDS011;667;48.796;9.480;2022-12-07T06:41:32;10.40;;;7.70;;
1346;SDS011;667;48.796;9.480;2022-12-07T06:43:58;11.20;;;7.40;;
1346;SDS011;667;48.796;9.480;2022-12-07T06:46:23;11.97;;;8.90;;
1346;SDS011;667;48.796;9.480;2022-12-07T06:48:49;9.43;;;7.50;;
1346;SDS011;667;48.796;9.480;2022-12-07T06:51:15;10.53;;;7.53;;
1346;SDS011;667;48.796;9.480;2022-12-07T06:53:41;10.02;;;7.80;;
1346;SDS011;667;48.796;9.480;2022-12-07T06:56:06;10.60;;;7.83;;
1346;SDS011;667;48.796;9.480;2022-12-07T06:58:32;11.87;;;8.17;;
1346;SDS011;667;48.796;9.480;2022-12-07T07:00:58;12.00;;;7.70;;
1346;SDS011;667;48.796;9.480;2022-12-07T07:03:24;11.03;;;8.90;;
1346;SDS011;667;48.796;9.480;2022-12-07T07:05:49;8.00;;;6.77;;
1346;SDS011;667;48.796;9.480;2022-12-07T07:08:15;12.07;;;7.70;;
1346;SDS011;667;48.796;9.480;2022-12-07T07:10:40;11.27;;;7.80;;
1346;SDS011;667;48.796;9.480;2022-12-07T07:13:06;10.73;;;8.07;;
1346;SDS011;667;48.796;9.480;2022-12-07T07:15:33;11.10;;;8.43;;
1346;SDS011;667;48.796;9.480;2022-12-07T07:17:59;10.13;;;7.40;;
1346;SDS011;667;48.796;9.480;2022-12-07T07:20:24;11.13;;;7.93;;
1346;SDS011;667;48.796;9.480;2022-12-07T07:22:50;10.50;;;7.80;;
1346;SDS011;667;48.796;9.480;2022-12-07T07:25:19;10.70;;;7.72;;
1346;SDS011;667;48.796;9.480;2022-12-07T07:27:44;12.83;;;9.20;;
1346;SDS011;667;48.796;9.480;2022-12-07T07:30:10;13.43;;;8.43;;
1346;SDS011;667;48.796;9.480;2022-12-07T07:32:36;14.50;;;10.20;;
1346;SDS011;667;48.796;9.480;2022-12-07T07:35:01;11.70;;;8.70;;
1346;SDS011;667;48.796;9.480;2022-12-07T07:37:27;12.60;;;7.37;;
1346;SDS011;667;48.796;9.480;2022-12-07T07:39:53;12.13;;;8.70;;
1346;SDS011;667;48.796;9.480;2022-12-07T07:42:19;12.47;;;8.80;;
1346;SDS011;667;48.796;9.480;2022-12-07T07:44:44;12.47;;;8.33;;
1346;SDS011;667;48.796;9.480;2022-12-07T07:47:10;9.87;;;7.90;;
1346;SDS011;667;48.796;9.480;2022-12-07T07:49:35;11.60;;;9.30;;
1346;SDS011;667;48.796;9.480;2022-12-07T07:52:01;11.20;;;9.27;;
1346;SDS011;667;48.796;9.480;2022-12-07T07:54:27;10.97;;;8.70;;
1346;SDS011;667;48.796;9.480;2022-12-07T07:56:52;11.27;;;8.97;;
1346;SDS011;667;48.796;9.480;2022-12-07T07:59:18;11.20;;;8.13;;
1346;SDS011;667;48.796;9.480;2022-12-07T08:01:43;10.77;;;8.00;;
1346;SDS011;667;48.796;9.480;2022-12-07T08:04:09;10.33;;;8.10;;
1346;SDS011;667;48.796;9.480;2022-12-07T08:06:35;10.80;;;7.90;;
1346;SDS011;667;48.796;9.480;2022-12-07T08:09:00;11.70;;;9.47;;
1346;SDS011;667;48.796;9.480;2022-12-07T08:11:26;13.57;;;10.63;;
1346;SDS011;667;48.796;9.480;2022-12-07T08:13:51;12.03;;;10.07;;
1346;SDS011;667;48.796;9.480;2022-12-07T08:16:17;19.20;;;12.93;;
1346;SDS011;667;48.796;9.480;2022-12-07T08:18:43;17.23;;;12.40;;
1346;SDS011;667;48.796;9.480;2022-12-07T08:21:13;12.63;;;9.03;;
1346;SDS011;667;48.796;9.480;2022-12-07T08:23:39;12.77;;;8.50;;
1346;SDS011;667;48.796;9.480;2022-12-07T08:26:06;18.98;;;12.90;;
1346;SDS011;667;48.796;9.480;2022-12-07T08:28:33;20.35;;;14.70;;
1346;SDS011;667;48.796;9.480;2022-12-07T08:31:00;22.03;;;15.30;;
1346;SDS011;667;48.796;9.480;2022-12-07T08:33:26;26.73;;;18.90;;
1346;SDS011;667;48.796;9.480;2022-12-07T08:35:52;16.50;;;12.93;;
1346;SDS011;667;48.796;9.480;2022-12-07T08:38:17;24.90;;;15.80;;
1346;SDS011;667;48.796;9.480;2022-12-07T08:40:43;15.50;;;10.43;;
1346;SDS011;667;48.796;9.480;2022-12-07T08:43:08;15.20;;;11.73;;
1346;SDS011;667;48.796;9.480;2022-12-07T08:45:34;22.50;;;14.43;;
1346;SDS011;667;48.796;9.480;2022-12-07T08:48:07;11.07;;;8.43;;
1346;SDS011;667;48.796;9.480;2022-12-07T08:50:35;12.75;;;9.95;;
1346;SDS011;667;48.796;9.480;2022-12-07T08:53:02;13.80;;;10.55;;
1346;SDS011;667;48.796;9.480;2022-12-07T08:55:29;14.18;;;10.52;;
1346;SDS011;667;48.796;9.480;2022-12-07T08:57:56;10.27;;;8.63;;
1346;SDS011;667;48.796;9.480;2022-12-07T09:00:23;9.35;;;6.97;;
1346;SDS011;667;48.796;9.480;2022-12-07T09:02:49;11.07;;;7.07;;
1346;SDS011;667;48.796;9.480;2022-12-07T09:05:15;9.27;;;7.37;;
1346;SDS011;667;48.796;9.480;2022-12-07T09:07:41;8.50;;;7.60;;
1346;SDS011;667;48.796;9.480;2022-12-07T09:10:09;9.98;;;7.97;;
1346;SDS011;667;48.796;9.480;2022-12-07T09:12:35;9.50;;;7.10;;
1346;SDS011;667;48.796;9.480;2022-12-07T09:15:00;8.77;;;7.43;;
1346;SDS011;667;48.796;9.480;2022-12-07T09:17:26;11.17;;;8.80;;
1346;SDS011;667;48.796;9.480;2022-12-07T09:19:52;12.10;;;9.23;;
1346;SDS011;667;48.796;9.480;2022-12-07T09:22:17;15.10;;;10.73;;
1346;SDS011;667;48.796;9.480;2022-12-07T09:24:43;14.37;;;10.80;;
1346;SDS011;667;48.796;9.480;2022-12-07T09:27:10;13.20;;;10.00;;
1346;SDS011;667;48.796;9.480;2022-12-07T09:29:36;12.27;;;9.35;;
1346;SDS011;667;48.796;9.480;2022-12-07T09:32:02;10.70;;;7.80;;
1346;SDS011;667;48.796;9.480;2022-12-07T09:34:30;22.10;;;16.83;;
1346;SDS011;667;48.796;9.480;2022-12-07T09:36:56;14.63;;;11.73;;
1346;SDS011;667;48.796;9.480;2022-12-07T09:39:24;12.93;;;10.00;;
1346;SDS011;667;48.796;9.480;2022-12-07T09:41:50;11.48;;;10.27;;
1346;SDS011;667;48.796;9.480;2022-12-07T09:44:24;13.20;;;11.07;;
1346;SDS011;667;48.796;9.480;2022-12-07T09:46:51;12.45;;;9.93;;
1346;SDS011;667;48.796;9.480;2022-12-07T09:49:21;9.52;;;8.27;;
1346;SDS011;667;48.796;9.480;2022-12-07T09:51:59;8.85;;;6.70;;
1346;SDS011;667;48.796;9.480;2022-12-07T09:54:28;10.25;;;7.75;;
1346;SDS011;667;48.796;9.480;2022-12-07T09:56:55;9.50;;;7.95;;
1346;SDS011;667;48.796;9.480;2022-12-07T09:59:21;9.33;;;7.97;;
1346;SDS011;667;48.796;9.480;2022-12-07T10:01:48;8.70;;;7.25;;
1346;SDS011;667;48.796;9.480;2022-12-07T10:06:46;8.73;;;7.20;;
1346;SDS011;667;48.796;9.480;2022-12-07T10:09:13;7.45;;;6.22;;
1346;SDS011;667;48.796;9.480;2022-12-07T10:14:33;7.90;;;6.93;;
1346;SDS011;667;48.796;9.480;2022-12-07T10:17:00;10.20;;;7.43;;
1346;SDS011;667;48.796;9.480;2022-12-07T10:19:30;7.87;;;6.37;;
1346;SDS011;667;48.796;9.480;2022-12-07T10:24:32;10.48;;;7.15;;
1346;SDS011;667;48.796;9.480;2022-12-07T10:26:57;8.40;;;6.47;;
1346;SDS011;667;48.796;9.480;2022-12-07T10:29:33;11.80;;;6.37;;
1346;SDS011;667;48.796;9.480;2022-12-07T10:34:51;8.93;;;6.10;;
1346;SDS011;667;48.796;9.480;2022-12-07T10:37:46;7.63;;;6.35;;
1346;SDS011;667;48.796;9.480;2022-12-07T10:40:34;7.03;;;5.63;;
1346;SDS011;667;48.796;9.480;2022-12-07T10:43:08;6.68;;;5.72;;
1346;SDS011;667;48.796;9.480;2022-12-07T10:48:13;7.90;;;6.77;;
1346;SDS011;667;48.796;9.480;2022-12-07T10:53:48;13.38;;;10.18;;
1346;SDS011;667;48.796;9.480;2022-12-07T10:56:51;12.38;;;9.40;;
1346;SDS011;667;48.796;9.480;2022-12-07T11:08:04;8.95;;;7.43;;
1346;SDS011;667;48.796;9.480;2022-12-07T11:10:53;7.53;;;6.35;;
1346;SDS011;667;48.796;9.480;2022-12-07T11:13:35;7.93;;;7.13;;
1346;SDS011;667;48.796;9.480;2022-12-07T11:25:10;7.63;;;6.10;;
1346;SDS011;667;48.796;9.480;2022-12-07T11:38:22;9.23;;;6.78;;
1346;SDS011;667;48.796;9.480;2022-12-07T11:40:50;9.57;;;7.03;;
1346;SDS011;667;48.796;9.480;2022-12-07T11:43:27;9.75;;;5.85;;
1346;SDS011;667;48.796;9.480;2022-12-07T11:46:05;6.88;;;6.00;;
1346;SDS011;667;48.796;9.480;2022-12-07T11:48:43;9.10;;;6.35;;
1346;SDS011;667;48.796;9.480;2022-12-07T11:51:22;8.40;;;6.75;;
1346;SDS011;667;48.796;9.480;2022-12-07T11:53:57;7.75;;;5.75;;
1346;SDS011;667;48.796;9.480;2022-12-07T11:56:37;15.20;;;12.85;;
1346;SDS011;667;48.796;9.480;2022-12-07T12:06:34;8.70;;;7.03;;
1346;SDS011;667;48.796;9.480;2022-12-07T12:20:24;11.25;;;7.68;;
1346;SDS011;667;48.796;9.480;2022-12-07T12:23:22;9.35;;;7.10;;
1346;SDS011;667;48.796;9.480;2022-12-07T12:25:59;8.63;;;5.85;;
1346;SDS011;667;48.796;9.480;2022-12-07T12:33:45;7.25;;;5.95;;
1346;SDS011;667;48.796;9.480;2022-12-07T12:59:35;13.25;;;11.43;;
1346;SDS011;667;48.796;9.480;2022-12-07T13:04:52;11.25;;;9.20;;
1346;SDS011;667;48.796;9.480;2022-12-07T13:26:04;12.75;;;9.27;;
1346;SDS011;667;48.796;9.480;2022-12-07T13:28:50;10.27;;;9.18;;
1346;SDS011;667;48.796;9.480;2022-12-07T13:34:01;10.00;;;8.15;;
1346;SDS011;667;48.796;9.480;2022-12-07T13:36:32;10.63;;;9.43;;
1346;SDS011;667;48.796;9.480;2022-12-07T13:41:41;9.85;;;8.82;;
1346;SDS011;667;48.796;9.480;2022-12-07T13:44:14;10.55;;;9.15;;
1346;SDS011;667;48.796;9.480;2022-12-07T13:49:32;12.23;;;9.43;;
1346;SDS011;667;48.796;9.480;2022-12-07T13:52:36;11.68;;;9.25;;
1346;SDS011;667;48.796;9.480;2022-12-07T13:57:20;10.53;;;8.77;;
1346;SDS011;667;48.796;9.480;2022-12-07T13:59:47;9.60;;;7.93;;
1346;SDS011;667;48.796;9.480;2022-12-07T14:02:17;13.80;;;11.23;;
1346;SDS011;667;48.796;9.480;2022-12-07T14:04:47;13.13;;;10.18;;
1346;SDS011;667;48.796;9.480;2022-12-07T14:09:56;70.60;;;40.67;;
1346;SDS011;667;48.796;9.480;2022-12-07T14:12:27;22.40;;;20.10;;
1346;SDS011;667;48.796;9.480;2022-12-07T14:14:54;17.15;;;15.35;;
1346;SDS011;667;48.796;9.480;2022-12-07T14:17:22;18.17;;;16.27;;
1346;SDS011;667;48.796;9.480;2022-12-07T14:19:50;14.52;;;13.07;;
1346;SDS011;667;48.796;9.480;2022-12-07T14:25:21;15.30;;;10.57;;
1346;SDS011;667;48.796;9.480;2022-12-07T14:27:50;9.45;;;8.45;;
1346;SDS011;667;48.796;9.480;2022-12-07T14:30:24;15.60;;;12.15;;
1346;SDS011;667;48.796;9.480;2022-12-07T14:32:57;16.40;;;12.20;;
1346;SDS011;667;48.796;9.480;2022-12-07T14:35:29;11.80;;;9.40;;
1346;SDS011;667;48.796;9.480;2022-12-07T14:37:56;11.80;;;9.93;;
1346;SDS011;667;48.796;9.480;2022-12-07T14:40:24;11.23;;;9.73;;
1346;SDS011;667;48.796;9.480;2022-12-07T14:43:11;12.60;;;10.60;;
1346;SDS011;667;48.796;9.480;2022-12-07T14:45:38;11.50;;;10.30;;
1346;SDS011;667;48.796;9.480;2022-12-07T14:48:07;13.25;;;9.63;;
1346;SDS011;667;48.796;9.480;2022-12-07T14:50:37;12.43;;;10.40;;
1346;SDS011;667;48.796;9.480;2022-12-07T14:53:10;9.35;;;7.60;;
1346;SDS011;667;48.796;9.480;2022-12-07T14:55:38;9.90;;;8.50;;
1346;SDS011;667;48.796;9.480;2022-12-07T14:58:04;11.70;;;8.27;;
1346;SDS011;667;48.796;9.480;2022-12-07T15:00:29;10.70;;;8.30;;
1346;SDS011;667;48.796;9.480;2022-12-07T15:02:55;11.17;;;9.17;;
1346;SDS011;667;48.796;9.480;2022-12-07T15:05:22;10.68;;;9.57;;
1346;SDS011;667;48.796;9.480;2022-12-07T15:07:48;12.90;;;9.83;;
1346;SDS011;667;48.796;9.480;2022-12-07T15:10:24;15.07;;;13.55;;
1346;SDS011;667;48.796;9.480;2022-12-07T15:12:56;13.00;;;11.50;;
1346;SDS011;667;48.796;9.480;2022-12-07T15:15:42;12.13;;;10.35;;
1346;SDS011;667;48.796;9.480;2022-12-07T15:18:08;17.07;;;11.17;;
1346;SDS011;667;48.796;9.480;2022-12-07T15:20:33;13.73;;;10.37;;
1346;SDS011;667;48.796;9.480;2022-12-07T15:22:59;13.03;;;9.87;;
1346;SDS011;667;48.796;9.480;2022-12-07T15:25:24;11.17;;;9.40;;
1346;SDS011;667;48.796;9.480;2022-12-07T15:27:50;10.93;;;8.10;;
1346;SDS011;667;48.796;9.480;2022-12-07T15:30:16;11.63;;;8.83;;
1346;SDS011;667;48.796;9.480;2022-12-07T15:32:41;14.90;;;10.83;;
1346;SDS011;667;48.796;9.480;2022-12-07T15:35:07;10.67;;;9.57;;
1346;SDS011;667;48.796;9.480;2022-12-07T15:37:33;14.90;;;9.90;;
1346;SDS011;667;48.796;9.480;2022-12-07T15:39:58;14.33;;;11.67;;
1346;SDS011;667;48.796;9.480;2022-12-07T15:42:24;12.97;;;10.93;;
1346;SDS011;667;48.796;9.480;2022-12-07T15:44:49;44.60;;;26.63;;
1346;SDS011;667;48.796;9.480;2022-12-07T15:47:31;32.67;;;19.77;;
1346;SDS011;667;48.796;9.480;2022-12-07T15:49:58;106.65;;;51.63;;
1346;SDS011;667;48.796;9.480;2022-12-07T15:52:24;51.97;;;28.23;;
1346;SDS011;667;48.796;9.480;2022-12-07T15:54:50;28.27;;;17.40;;
1346;SDS011;667;48.796;9.480;2022-12-07T15:57:15;21.53;;;13.87;;
1346;SDS011;667;48.796;9.480;2022-12-07T15:59:41;22.77;;;15.30;;
1346;SDS011;667;48.796;9.480;2022-12-07T16:02:07;87.83;;;49.50;;
1346;SDS011;667;48.796;9.480;2022-12-07T16:04:35;51.20;;;33.22;;
1346;SDS011;667;48.796;9.480;2022-12-07T16:07:00;43.20;;;29.37;;
1346;SDS011;667;48.796;9.480;2022-12-07T16:09:26;30.70;;;20.20;;
1346;SDS011;667;48.796;9.480;2022-12-07T16:11:51;45.73;;;29.37;;
1346;SDS011;667;48.796;9.480;2022-12-07T16:14:17;31.20;;;21.73;;
1346;SDS011;667;48.796;9.480;2022-12-07T16:16:43;52.67;;;33.60;;
1346;SDS011;667;48.796;9.480;2022-12-07T16:19:09;17.00;;;14.00;;
1346;SDS011;667;48.796;9.480;2022-12-07T16:21:35;52.50;;;34.30;;
1346;SDS011;667;48.796;9.480;2022-12-07T16:24:01;35.87;;;24.50;;
1346;SDS011;667;48.796;9.480;2022-12-07T16:26:27;42.03;;;28.23;;
1346;SDS011;667;48.796;9.480;2022-12-07T16:28:53;49.00;;;33.42;;
1346;SDS011;667;48.796;9.480;2022-12-07T16:31:21;31.42;;;24.45;;
1346;SDS011;667;48.796;9.480;2022-12-07T16:33:48;41.58;;;30.40;;
1346;SDS011;667;48.796;9.480;2022-12-07T16:36:14;33.28;;;27.80;;
1346;SDS011;667;48.796;9.480;2022-12-07T16:38:41;22.42;;;16.67;;
1346;SDS011;667;48.796;9.480;2022-12-07T16:41:07;18.02;;;14.85;;
1346;SDS011;667;48.796;9.480;2022-12-07T16:43:33;15.60;;;12.93;;
1346;SDS011;667;48.796;9.480;2022-12-07T16:45:59;11.80;;;10.60;;
1346;SDS011;667;48.796;9.480;2022-12-07T16:48:25;11.15;;;9.50;;
1346;SDS011;667;48.796;9.480;2022-12-07T16:50:51;12.47;;;9.90;;
1346;SDS011;667;48.796;9.480;2022-12-07T16:53:19;13.98;;;10.35;;
1346;SDS011;667;48.796;9.480;2022-12-07T16:55:45;14.45;;;10.90;;
1346;SDS011;667;48.796;9.480;2022-12-07T16:58:14;13.97;;;11.20;;
1346;SDS011;667;48.796;9.480;2022-12-07T17:00:41;12.20;;;9.77;;
1346;SDS011;667;48.796;9.480;2022-12-07T17:03:07;15.07;;;9.30;;
1346;SDS011;667;48.796;9.480;2022-12-07T17:05:36;14.00;;;10.23;;
1346;SDS011;667;48.796;9.480;2022-12-07T17:08:06;12.00;;;9.77;;
1346;SDS011;667;48.796;9.480;2022-12-07T17:10:32;11.23;;;9.40;;
1346;SDS011;667;48.796;9.480;2022-12-07T17:13:00;11.88;;;9.77;;
1346;SDS011;667;48.796;9.480;2022-12-07T17:15:26;12.07;;;10.00;;
1346;SDS011;667;48.796;9.480;2022-12-07T17:17:53;13.45;;;9.75;;
1346;SDS011;667;48.796;9.480;2022-12-07T17:20:21;14.95;;;10.27;;
1346;SDS011;667;48.796;9.480;2022-12-07T17:22:49;15.93;;;10.05;;
1346;SDS011;667;48.796;9.480;2022-12-07T17:25:15;11.17;;;9.97;;
1346;SDS011;667;48.796;9.480;2022-12-07T17:27:41;14.10;;;10.63;;
1346;SDS011;667;48.796;9.480;2022-12-07T17:30:08;13.27;;;10.00;;
1346;SDS011;667;48.796;9.480;2022-12-07T17:32:34;14.82;;;10.48;;
1346;SDS011;667;48.796;9.480;2022-12-07T17:35:00;14.47;;;10.07;;
1346;SDS011;667;48.796;9.480;2022-12-07T17:37:26;16.10;;;9.90;;
1346;SDS011;667;48.796;9.480;2022-12-07T17:39:52;12.07;;;10.63;;
1346;SDS011;667;48.796;9.480;2022-12-07T17:42:20;13.05;;;9.90;;
1346;SDS011;667;48.796;9.480;2022-12-07T17:45:05;10.65;;;8.65;;
1346;SDS011;667;48.796;9.480;2022-12-07T17:47:34;13.90;;;10.60;;
1346;SDS011;667;48.796;9.480;2022-12-07T17:50:04;13.07;;;10.23;;
1346;SDS011;667;48.796;9.480;2022-12-07T17:52:31;13.68;;;10.93;;
1346;SDS011;667;48.796;9.480;2022-12-07T17:55:15;11.55;;;9.77;;
1346;SDS011;667;48.796;9.480;2022-12-07T17:57:41;12.75;;;11.55;;
1346;SDS011;667;48.796;9.480;2022-12-07T18:00:07;16.47;;;13.47;;
1346;SDS011;667;48.796;9.480;2022-12-07T18:02:33;17.40;;;11.93;;
1346;SDS011;667;48.796;9.480;2022-12-07T18:04:59;12.43;;;9.77;;
1346;SDS011;667;48.796;9.480;2022-12-07T18:07:25;13.30;;;11.50;;
1346;SDS011;667;48.796;9.480;2022-12-07T18:09:50;13.07;;;9.73;;
1346;SDS011;667;48.796;9.480;2022-12-07T18:12:16;11.20;;;9.27;;
1346;SDS011;667;48.796;9.480;2022-12-07T18:14:41;11.80;;;8.70;;
1346;SDS011;667;48.796;9.480;2022-12-07T18:17:07;12.47;;;8.13;;
1346;SDS011;667;48.796;9.480;2022-12-07T18:19:32;12.00;;;8.97;;
1346;SDS011;667;48.796;9.480;2022-12-07T18:22:01;10.52;;;9.43;;
1346;SDS011;667;48.796;9.480;2022-12-07T18:24:27;9.77;;;8.40;;
1346;SDS011;667;48.796;9.480;2022-12-07T18:26:53;10.77;;;9.50;;